Latest Weather Observations for Sydney Olympic Park

IDN60901

Issued at 11:32 pm EDT Monday 26 January 2015 (issued every 10 minutes, with the page automatically refreshed every 10 minutes)

About weather observations | Map of Sydney area stations | Latest observations for Sydney area | Other Formats
Station Details ID: 066212 Name: SYDNEY OLYMPIC PARK AWS (ARCHERY CENTRE) Lat: -33.83 Lon: 151.07 Height: 4.0 m
Data from the previous 72 hours. | See also: Recent months at Sydney Olympic Park
Date/Time
EDT
Tmp

°C
App
Tmp
°C
Dew
Point
°C
Rel
Hum
%
Delta-T

°C
Wind Press
QNH
hPa
Press
MSL
hPa
Rain
since
9 am
mm
Dir
 
Spd
km/h
Gust
km/h
Spd
kts
Gust
kts
26/11:00pm 19.1 22.3 18.8 98 0.2 CALM 0 0 0 0 - - 7.6
26/10:30pm 18.9 21.2 18.6 98 0.2 ESE 4 13 2 7 - - 5.8
26/10:00pm 19.0 21.0 18.7 98 0.2 WSW 6 11 3 6 - - 5.4
26/09:30pm 18.9 22.0 18.6 98 0.2 CALM 0 4 0 2 - - 4.0
26/09:00pm 18.7 20.5 18.4 98 0.2 S 6 9 3 5 - - 3.4
26/08:45pm 18.7 20.4 18.4 98 0.2 SSE 7 11 4 6 - - 3.2
26/08:40pm 18.6 19.8 18.3 98 0.2 SSE 9 13 5 7 - - 3.0
26/08:30pm 18.5 19.3 18.2 98 0.2 SSE 11 15 6 8 - - 3.0
26/08:00pm 18.5 19.7 18.2 98 0.2 SSE 9 11 5 6 - - 2.8
26/07:30pm 18.3 18.6 18.0 98 0.2 S 13 19 7 10 - - 2.0
26/07:00pm 18.5 18.9 18.2 98 0.2 S 13 20 7 11 - - 1.0
26/06:30pm 18.5 19.3 18.2 98 0.2 S 11 17 6 9 - - 0.4
26/06:00pm 18.8 18.2 17.5 92 0.8 SSE 17 24 9 13 - - 0.0
26/05:48pm 19.2 18.9 17.3 89 1.2 S 15 24 8 13 - - 0.0
26/05:30pm 19.3 17.9 16.9 86 1.5 S 20 28 11 15 - - 0.0
26/05:00pm 19.5 18.7 17.1 86 1.5 S 17 28 9 15 - - 0.0
26/04:35pm 19.2 18.3 17.7 91 0.9 SSE 19 26 10 14 - - 0.0
26/04:30pm 19.2 19.4 17.7 91 0.9 S 13 26 7 14 - - 0.0
26/04:00pm 19.2 18.9 17.3 89 1.2 SSE 15 24 8 13 - - 0.0
26/03:55pm 19.3 19.0 17.3 88 1.2 S 15 24 8 13 - - 0.0
26/03:30pm 19.6 18.2 17.0 85 1.6 S 20 30 11 16 - - 0.0
26/03:00pm 19.7 19.5 17.5 87 1.3 S 15 24 8 13 - - 0.0
26/02:30pm 19.4 19.3 17.9 91 0.9 SSE 15 26 8 14 - - 0.0
26/02:29pm 19.5 19.5 18.2 92 0.8 SSE 15 26 8 14 - - 0.0
26/02:00pm 19.2 18.4 17.9 92 0.8 S 19 30 10 16 - - 0.0
26/01:41pm 19.9 19.1 17.1 84 1.7 S 17 26 9 14 - - 0.0
26/01:30pm 20.6 20.2 17.2 81 2.1 SSE 15 20 8 11 - - 0.0
26/01:00pm 20.4 19.7 17.4 83 1.8 S 17 24 9 13 - - 0.0
26/12:30pm 20.0 19.3 17.4 85 1.6 SSE 17 28 9 15 - - 0.0
26/12:06pm 20.3 19.0 17.3 83 1.8 SSE 20 32 11 17 - - 0.0
26/12:00pm 20.1 18.7 17.1 83 1.8 SSE 20 32 11 17 - - 0.0
26/11:41am 20.6 20.2 17.2 81 2.1 SSE 15 24 8 13 - - 0.0
26/11:30am 20.9 19.9 16.5 76 2.7 SSE 17 26 9 14 - - 0.0
26/11:00am 20.9 20.2 16.5 76 2.7 SSE 15 26 8 14 - - 0.0
26/10:30am 20.6 19.2 16.6 78 2.4 S 19 26 10 14 - - 0.0
26/10:00am 20.4 19.9 16.8 80 2.2 SSE 15 24 8 13 - - 0.0
26/09:30am 20.5 19.6 16.9 80 2.2 S 17 28 9 15 - - 0.0
26/09:00am 20.8 21.1 17.0 79 2.3 SSE 11 17 6 9 - - 0.0
26/08:30am 20.9 21.2 17.1 79 2.3 S 11 17 6 9 - - 0.0
26/08:00am 20.8 21.5 17.0 79 2.3 SSE 9 15 5 8 - - 0.0
26/07:30am 20.8 20.7 17.0 79 2.3 S 13 22 7 12 - - 0.0
26/07:00am 20.9 21.2 17.1 79 2.3 S 11 19 6 10 - - 0.0
26/06:30am 20.9 20.9 17.1 79 2.3 S 13 22 7 12 - - 0.0
26/06:00am 20.7 20.3 17.1 80 2.2 S 15 24 8 13 - - 0.0
26/05:30am 20.6 19.8 17.0 80 2.2 S 17 28 9 15 - - 0.0
26/05:00am 20.8 20.8 17.2 80 2.2 SSE 13 19 7 10 - - 0.0
26/04:30am 20.8 20.5 17.4 81 2.1 S 15 24 8 13 - - 0.0
26/04:00am 21.1 21.3 17.7 81 2.1 S 13 24 7 13 - - 0.0
26/03:30am 21.4 21.7 17.8 80 2.2 SSW 13 20 7 11 - - 0.0
26/03:00am 21.5 22.2 17.9 80 2.2 SW 11 20 6 11 - - 0.0
26/02:30am 21.4 22.6 18.2 82 2.0 SW 9 13 5 7 - - 0.0
26/02:13am 21.4 22.6 18.2 82 2.0 SW 9 15 5 8 - - 0.0
26/02:00am 21.4 22.7 18.4 83 1.9 SSW 9 15 5 8 - - 0.0
26/01:58am 21.5 22.8 18.5 83 1.9 SSW 9 15 5 8 - - 0.0
26/01:30am 21.6 22.8 18.2 81 2.1 SSW 9 15 5 8 - - 0.0
26/01:00am 21.9 23.3 18.7 82 2.0 SSW 9 15 5 8 - - 0.0
26/12:30am 21.9 22.5 18.7 82 2.0 S 13 22 7 12 - - 0.0
26/12:00am 22.0 21.6 18.8 82 2.0 S 19 30 10 16 - - 0.0
 
Date/Time
EDT
Tmp

°C
App
Tmp
°C
Dew
Point
°C
Rel
Hum
%
Delta-T

°C
Wind Press
QNH
hPa
Press
MSL
hPa
Rain
since
9 am
mm
Dir
 
Spd
km/h
Gust
km/h
Spd
kts
Gust
kts
25/11:30pm 22.1 21.7 18.9 82 2.0 SSE 19 26 10 14 - - 0.0
25/11:00pm 22.4 22.4 19.0 81 2.2 SSE 17 32 9 17 - - 0.0
25/10:30pm 22.6 21.8 19.2 81 2.2 SSE 22 33 12 18 - - 0.0
25/10:00pm 22.8 22.5 19.2 80 2.3 SSE 19 35 10 19 - - 0.0
25/09:30pm 23.0 22.8 19.4 80 2.3 SSE 19 28 10 15 - - 0.0
25/09:00pm 23.2 22.2 19.6 80 2.3 SSE 24 43 13 23 - - 0.0
25/08:30pm 23.4 22.9 20.0 81 2.2 SSE 22 39 12 21 - - 0.0
25/08:02pm 23.7 22.1 20.0 80 2.4 SSE 28 46 15 25 - - 0.0
25/08:00pm 23.7 21.7 20.0 80 2.4 SSE 30 46 16 25 - - 0.0
25/07:38pm 24.5 22.9 20.0 76 2.9 SSE 28 46 15 25 - - 0.0
25/07:30pm 24.8 22.6 19.6 73 3.3 SSE 30 46 16 25 - - 0.0
25/07:24pm 25.7 23.9 19.6 69 3.9 SSE 28 46 15 25 - - 0.0
25/07:16pm 26.7 24.8 19.3 64 4.8 SSE 28 43 15 23 - - 0.0
25/07:00pm 31.1 31.2 19.1 48 7.8 ESE 17 20 9 11 - - 0.0
25/06:30pm 32.3 32.9 18.5 44 8.9 ESE 13 20 7 11 - - 0.0
25/06:00pm 32.5 32.8 18.7 44 9.0 E 15 24 8 13 - - 0.0
25/05:30pm 32.5 32.8 18.7 44 9.0 ESE 15 20 8 11 - - 0.0
25/05:00pm 32.0 33.5 20.6 51 7.6 ESE 13 20 7 11 - - 0.0
25/04:30pm 32.2 33.7 18.8 45 8.7 SE 9 20 5 11 - - 0.0
25/04:00pm 35.0 35.2 16.8 34 11.6 SSW 11 20 6 11 - - 0.0
25/03:30pm 35.2 36.6 20.3 41 10.0 WSW 13 22 7 12 - - 0.0
25/03:00pm 35.6 35.9 18.7 37 11.1 NW 15 26 8 14 - - 0.0
25/02:30pm 35.3 36.2 17.5 34 11.5 NNW 9 19 5 10 - - 0.0
25/02:00pm 35.1 35.9 19.1 39 10.5 WNW 13 20 7 11 - - 0.0
25/01:30pm 34.3 35.0 18.8 40 10.2 WNW 13 19 7 10 - - 0.0
25/01:00pm 33.6 34.2 18.5 40 9.8 WNW 13 24 7 13 - - 0.0
25/12:30pm 33.4 36.4 21.2 48 8.2 NW 7 20 4 11 - - 0.0
25/12:00pm 32.3 34.9 20.5 49 7.9 WNW 7 20 4 11 - - 0.0
25/11:30am 31.1 31.9 19.8 51 7.4 NW 15 24 8 13 - - 0.0
25/11:00am 30.1 32.0 19.8 54 6.8 WSW 9 15 5 8 - - 0.0
25/10:30am 29.4 32.9 21.1 61 5.5 SW 4 9 2 5 - - 0.0
25/10:00am 27.9 32.5 21.7 69 4.2 CALM 0 6 0 3 - - 0.0
25/09:30am 26.7 31.9 22.8 79 2.6 CALM 0 6 0 3 - - 0.0
25/09:00am 24.8 29.1 21.9 84 1.9 NNW 2 7 1 4 - - 9.2
25/08:30am 23.3 28.2 22.3 94 0.7 CALM 0 2 0 1 - - 9.2
25/08:00am 22.1 26.7 21.8 98 0.2 CALM 0 0 0 0 - - 9.2
25/07:30am 21.8 26.3 21.5 98 0.2 CALM 0 0 0 0 - - 9.2
25/07:00am 21.6 26.0 21.3 98 0.2 CALM 0 0 0 0 - - 9.2
25/06:30am 20.8 24.8 20.5 98 0.2 CALM 0 0 0 0 - - 9.2
25/06:00am 20.9 24.9 20.6 98 0.2 CALM 0 0 0 0 - - 9.2
25/05:30am 21.2 25.4 20.9 98 0.2 CALM 0 0 0 0 - - 9.2
25/05:00am 21.2 24.6 20.9 98 0.2 W 4 7 2 4 - - 9.2
25/04:30am 21.1 25.2 20.8 98 0.2 CALM 0 0 0 0 - - 9.2
25/04:09am 21.1 25.2 20.8 98 0.2 CALM 0 0 0 0 - - 9.2
25/04:00am 21.4 25.7 21.1 98 0.2 CALM 0 0 0 0 - - 9.2
25/03:48am 21.5 25.8 21.2 98 0.2 CALM 0 0 0 0 - - 9.2
25/03:30am 21.4 25.7 21.1 98 0.2 CALM 0 0 0 0 - - 9.2
25/03:00am 21.4 25.7 21.1 98 0.2 CALM 0 0 0 0 - - 9.2
25/02:30am 21.8 25.1 21.5 98 0.2 NNW 6 7 3 4 - - 9.2
25/02:00am 22.2 25.7 21.9 98 0.2 NW 6 9 3 5 - - 9.2
25/01:30am 22.5 27.0 22.2 98 0.2 WNW 2 7 1 4 - - 9.2
25/01:00am 23.1 27.5 22.8 98 0.2 NW 4 11 2 6 - - 9.2
25/12:30am 23.1 26.9 22.8 98 0.2 NW 7 9 4 5 - - 9.2
25/12:00am 23.1 27.1 22.8 98 0.2 N 6 9 3 5 - - 9.2
 
Date/Time
EDT
Tmp

°C
App
Tmp
°C
Dew
Point
°C
Rel
Hum
%
Delta-T

°C
Wind Press
QNH
hPa
Press
MSL
hPa
Rain
since
9 am
mm
Dir
 
Spd
km/h
Gust
km/h
Spd
kts
Gust
kts
24/11:30pm 23.0 26.4 22.7 98 0.2 NE 9 13 5 7 - - 9.0
24/11:00pm 22.5 26.6 22.2 98 0.2 E 4 13 2 7 - - 9.0
24/10:57pm 22.6 26.3 22.3 98 0.2 ESE 6 9 3 5 - - 9.0
24/10:30pm 22.7 26.3 22.4 98 0.2 NNW 7 11 4 6 - - 8.6
24/10:04pm 23.7 26.2 21.8 89 1.3 NNW 11 17 6 9 - - 0.4
24/10:00pm 23.8 25.8 21.5 87 1.5 NNW 13 17 7 9 - - 0.0
24/09:30pm 25.3 28.3 21.2 78 2.7 N 7 9 4 5 - - 0.0
24/09:00pm 25.7 28.5 20.9 75 3.2 NE 7 13 4 7 - - 0.0
24/08:30pm 25.9 28.9 20.9 74 3.3 ENE 6 9 3 5 - - 0.0
24/08:00pm 25.8 28.1 20.6 73 3.4 N 9 19 5 10 - - 0.0
24/07:30pm 26.0 27.8 20.3 71 3.7 NE 11 19 6 10 - - 0.0
24/07:00pm 26.4 27.8 20.3 69 4.0 NE 13 22 7 12 - - 0.0
24/06:30pm 26.6 27.7 20.4 69 4.1 NE 15 26 8 14 - - 0.0
24/06:00pm 27.2 28.2 19.5 62 5.0 NE 13 28 7 15 - - 0.0
24/05:30pm 27.7 28.0 19.5 61 5.3 NE 17 30 9 16 - - 0.0
24/05:00pm 28.0 28.0 19.0 58 5.8 E 17 30 9 16 - - 0.0
24/04:30pm 28.5 28.6 19.1 56 6.1 E 17 30 9 16 - - 0.0
24/04:00pm 29.6 29.2 18.1 50 7.4 E 17 30 9 16 - - 0.0
24/03:30pm 30.7 30.5 19.4 51 7.4 E 19 28 10 15 - - 0.0
24/03:00pm 30.5 30.1 20.1 53 6.9 E 22 33 12 18 - - 0.0
24/02:30pm 30.7 30.8 20.0 52 7.1 E 19 26 10 14 - - 0.0
24/02:00pm 31.0 31.5 20.0 52 7.3 E 17 26 9 14 - - 0.0
24/01:30pm 30.8 31.2 19.8 52 7.2 E 17 26 9 14 - - 0.0
24/01:00pm 31.4 33.3 21.3 55 6.8 E 13 24 7 13 - - 0.0
24/12:30pm 30.4 33.0 21.2 58 6.2 E 9 17 5 9 - - 0.0
24/12:00pm 31.1 34.2 22.1 58 6.1 ESE 9 15 5 8 - - 0.0
24/11:30am 30.2 33.0 21.6 60 5.8 E 9 17 5 9 - - 0.0
24/11:00am 29.2 31.6 20.9 61 5.5 E 9 17 5 9 - - 0.0
24/10:30am 29.0 32.2 21.7 64 4.9 ENE 7 17 4 9 - - 0.0
24/10:00am 28.4 32.1 22.2 69 4.2 ESE 6 11 3 6 - - 0.0
24/09:30am 27.8 31.9 22.3 72 3.7 NW 4 9 2 5 - - 0.0
24/09:00am 26.9 31.0 22.3 76 3.1 NW 4 9 2 5 - - 0.0
24/08:30am 25.9 30.0 22.2 80 2.5 NNW 4 9 2 5 - - 0.0
24/08:00am 24.6 28.5 21.1 81 2.3 N 2 9 1 5 - - 0.0
24/07:30am 23.5 27.8 21.2 87 1.5 CALM 0 0 0 0 - - 0.0
24/07:00am 23.1 26.8 21.4 90 1.1 NNE 4 9 2 5 - - 0.0
24/06:30am 22.8 26.2 21.6 93 0.8 ENE 6 11 3 6 - - 0.0
24/06:00am 22.8 26.0 21.6 93 0.8 E 7 11 4 6 - - 0.0
24/05:30am 22.8 26.0 21.6 93 0.8 E 7 11 4 6 - - 0.0
24/05:00am 22.6 26.0 21.6 94 0.7 E 6 9 3 5 - - 0.0
24/04:30am 22.6 25.6 21.2 92 0.9 ESE 7 9 4 5 - - 0.0
24/04:00am 23.2 27.0 21.6 91 1.1 ENE 4 9 2 5 - - 0.0
24/03:30am 23.3 27.8 21.6 90 1.1 CALM 0 0 0 0 - - 0.0
24/03:00am 23.6 27.4 21.7 89 1.3 NE 4 11 2 6 - - 0.0
24/02:30am 23.7 26.9 21.6 88 1.4 ENE 7 13 4 7 - - 0.0
24/02:00am 24.0 27.2 21.7 87 1.5 E 7 13 4 7 - - 0.0
24/01:30am 24.5 28.0 21.8 85 1.8 ENE 6 13 3 7 - - 0.0
24/01:00am 24.6 27.8 21.7 84 1.9 ENE 7 11 4 6 - - 0.0
24/12:30am 24.8 28.0 21.7 83 2.1 ENE 7 13 4 7 - - 0.0
24/12:00am 25.0 28.2 21.7 82 2.2 ENE 7 13 4 7 - - 0.0

Latest Capital City Observations: Canberra | Sydney | Melbourne | Brisbane | Adelaide | Perth | Hobart | Darwin

Other Formats:

Comma delimited format used in spreadsheet applications
http://www.bom.gov.au/fwo/IDN60901/IDN60901.95765.axf

JavaScript Object Notation format (JSON) in row-major order
http://www.bom.gov.au/fwo/IDN60901/IDN60901.95765.json